sensor_id;sensor_type;location;lat;lon;timestamp;P1;durP1;ratioP1;P2;durP2;ratioP2
8622;SDS011;4349;47.552;8.904;2024-01-06T00:01:20;12.10;;;11.03;;
8622;SDS011;4349;47.552;8.904;2024-01-06T00:03:47;11.53;;;10.43;;
8622;SDS011;4349;47.552;8.904;2024-01-06T00:06:16;12.10;;;11.00;;
8622;SDS011;4349;47.552;8.904;2024-01-06T00:08:44;11.83;;;10.77;;
8622;SDS011;4349;47.552;8.904;2024-01-06T00:11:12;11.40;;;10.40;;
8622;SDS011;4349;47.552;8.904;2024-01-06T00:13:39;11.50;;;10.50;;
8622;SDS011;4349;47.552;8.904;2024-01-06T00:16:07;9.70;;;9.00;;
8622;SDS011;4349;47.552;8.904;2024-01-06T00:18:34;9.80;;;9.00;;
8622;SDS011;4349;47.552;8.904;2024-01-06T00:21:02;9.63;;;8.90;;
8622;SDS011;4349;47.552;8.904;2024-01-06T00:23:31;9.00;;;8.40;;
8622;SDS011;4349;47.552;8.904;2024-01-06T00:25:59;9.50;;;8.77;;
8622;SDS011;4349;47.552;8.904;2024-01-06T00:28:26;10.40;;;9.43;;
8622;SDS011;4349;47.552;8.904;2024-01-06T00:30:54;8.97;;;8.27;;
8622;SDS011;4349;47.552;8.904;2024-01-06T00:33:22;8.73;;;8.07;;
8622;SDS011;4349;47.552;8.904;2024-01-06T00:35:49;9.60;;;8.90;;
8622;SDS011;4349;47.552;8.904;2024-01-06T00:38:17;9.33;;;8.60;;
8622;SDS011;4349;47.552;8.904;2024-01-06T00:40:47;8.83;;;8.13;;
8622;SDS011;4349;47.552;8.904;2024-01-06T00:43:15;9.07;;;8.33;;
8622;SDS011;4349;47.552;8.904;2024-01-06T00:45:42;9.70;;;9.00;;
8622;SDS011;4349;47.552;8.904;2024-01-06T00:48:10;9.40;;;8.70;;
8622;SDS011;4349;47.552;8.904;2024-01-06T00:50:38;9.73;;;8.93;;
8622;SDS011;4349;47.552;8.904;2024-01-06T00:53:05;9.93;;;9.03;;
8622;SDS011;4349;47.552;8.904;2024-01-06T00:55:33;11.93;;;10.83;;
8622;SDS011;4349;47.552;8.904;2024-01-06T00:58:02;10.53;;;9.63;;
8622;SDS011;4349;47.552;8.904;2024-01-06T01:00:29;11.30;;;10.07;;
8622;SDS011;4349;47.552;8.904;2024-01-06T01:02:57;11.13;;;10.13;;
8622;SDS011;4349;47.552;8.904;2024-01-06T01:05:25;11.50;;;10.43;;
8622;SDS011;4349;47.552;8.904;2024-01-06T01:07:52;10.93;;;9.97;;
8622;SDS011;4349;47.552;8.904;2024-01-06T01:10:20;9.30;;;8.50;;
8622;SDS011;4349;47.552;8.904;2024-01-06T01:12:47;8.67;;;8.03;;
8622;SDS011;4349;47.552;8.904;2024-01-06T01:15:16;8.83;;;8.13;;
8622;SDS011;4349;47.552;8.904;2024-01-06T01:17:44;8.67;;;8.07;;
8622;SDS011;4349;47.552;8.904;2024-01-06T01:20:12;8.10;;;7.57;;
8622;SDS011;4349;47.552;8.904;2024-01-06T01:22:39;8.60;;;7.90;;
8622;SDS011;4349;47.552;8.904;2024-01-06T01:25:07;7.80;;;7.30;;
8622;SDS011;4349;47.552;8.904;2024-01-06T01:27:34;7.70;;;7.13;;
8622;SDS011;4349;47.552;8.904;2024-01-06T01:30:02;7.23;;;6.73;;
8622;SDS011;4349;47.552;8.904;2024-01-06T01:32:31;7.53;;;7.03;;
8622;SDS011;4349;47.552;8.904;2024-01-06T01:34:59;7.53;;;7.00;;
8622;SDS011;4349;47.552;8.904;2024-01-06T01:37:27;7.03;;;6.53;;
8622;SDS011;4349;47.552;8.904;2024-01-06T01:39:54;6.63;;;6.23;;
8622;SDS011;4349;47.552;8.904;2024-01-06T01:42:22;7.27;;;6.77;;
8622;SDS011;4349;47.552;8.904;2024-01-06T01:44:50;7.33;;;6.83;;
8622;SDS011;4349;47.552;8.904;2024-01-06T01:47:17;7.07;;;6.67;;
8622;SDS011;4349;47.552;8.904;2024-01-06T01:49:46;7.13;;;6.67;;
8622;SDS011;4349;47.552;8.904;2024-01-06T01:52:15;7.17;;;6.77;;
8622;SDS011;4349;47.552;8.904;2024-01-06T01:54:43;7.23;;;6.70;;
8622;SDS011;4349;47.552;8.904;2024-01-06T01:57:11;6.97;;;6.50;;
8622;SDS011;4349;47.552;8.904;2024-01-06T01:59:40;8.00;;;7.40;;
8622;SDS011;4349;47.552;8.904;2024-01-06T02:02:08;9.27;;;8.57;;
8622;SDS011;4349;47.552;8.904;2024-01-06T02:04:36;8.80;;;8.10;;
8622;SDS011;4349;47.552;8.904;2024-01-06T02:07:05;9.23;;;8.53;;
8622;SDS011;4349;47.552;8.904;2024-01-06T02:09:32;10.03;;;9.17;;
8622;SDS011;4349;47.552;8.904;2024-01-06T02:12:00;9.93;;;9.13;;
8622;SDS011;4349;47.552;8.904;2024-01-06T02:14:29;8.87;;;8.20;;
8622;SDS011;4349;47.552;8.904;2024-01-06T02:16:58;9.50;;;8.70;;
8622;SDS011;4349;47.552;8.904;2024-01-06T02:19:26;9.87;;;9.07;;
8622;SDS011;4349;47.552;8.904;2024-01-06T02:21:55;8.93;;;8.20;;
8622;SDS011;4349;47.552;8.904;2024-01-06T02:24:23;8.50;;;7.80;;
8622;SDS011;4349;47.552;8.904;2024-01-06T02:26:50;8.43;;;7.63;;
8622;SDS011;4349;47.552;8.904;2024-01-06T02:29:18;8.27;;;7.63;;
8622;SDS011;4349;47.552;8.904;2024-01-06T02:31:46;10.17;;;7.90;;
8622;SDS011;4349;47.552;8.904;2024-01-06T02:34:13;6.43;;;6.00;;
8622;SDS011;4349;47.552;8.904;2024-01-06T02:36:41;6.33;;;5.93;;
8622;SDS011;4349;47.552;8.904;2024-01-06T02:39:10;6.83;;;6.07;;
8622;SDS011;4349;47.552;8.904;2024-01-06T02:41:38;5.87;;;5.37;;
8622;SDS011;4349;47.552;8.904;2024-01-06T02:44:05;5.43;;;5.13;;
8622;SDS011;4349;47.552;8.904;2024-01-06T02:46:39;4.40;;;4.10;;
8622;SDS011;4349;47.552;8.904;2024-01-06T02:49:07;3.80;;;3.60;;
8622;SDS011;4349;47.552;8.904;2024-01-06T02:51:34;3.10;;;2.90;;
8622;SDS011;4349;47.552;8.904;2024-01-06T02:54:02;3.27;;;3.17;;
8622;SDS011;4349;47.552;8.904;2024-01-06T02:56:32;3.30;;;3.10;;
8622;SDS011;4349;47.552;8.904;2024-01-06T02:58:59;3.23;;;3.03;;
8622;SDS011;4349;47.552;8.904;2024-01-06T03:01:27;3.07;;;2.87;;
8622;SDS011;4349;47.552;8.904;2024-01-06T03:03:54;3.50;;;2.67;;
8622;SDS011;4349;47.552;8.904;2024-01-06T03:06:22;4.80;;;4.40;;
8622;SDS011;4349;47.552;8.904;2024-01-06T03:08:50;4.20;;;3.90;;
8622;SDS011;4349;47.552;8.904;2024-01-06T03:11:17;5.03;;;4.43;;
8622;SDS011;4349;47.552;8.904;2024-01-06T03:13:46;7.47;;;5.40;;
8622;SDS011;4349;47.552;8.904;2024-01-06T03:16:14;6.63;;;4.90;;
8622;SDS011;4349;47.552;8.904;2024-01-06T03:18:41;3.80;;;3.50;;
8622;SDS011;4349;47.552;8.904;2024-01-06T03:21:16;3.10;;;2.90;;
8622;SDS011;4349;47.552;8.904;2024-01-06T03:23:43;3.17;;;3.00;;
8622;SDS011;4349;47.552;8.904;2024-01-06T03:26:11;2.67;;;2.57;;
8622;SDS011;4349;47.552;8.904;2024-01-06T03:28:39;2.70;;;2.60;;
8622;SDS011;4349;47.552;8.904;2024-01-06T03:31:07;2.80;;;2.70;;
8622;SDS011;4349;47.552;8.904;2024-01-06T03:33:35;3.13;;;3.00;;
8622;SDS011;4349;47.552;8.904;2024-01-06T03:36:06;3.20;;;3.00;;
8622;SDS011;4349;47.552;8.904;2024-01-06T03:38:34;2.90;;;2.80;;
8622;SDS011;4349;47.552;8.904;2024-01-06T03:41:01;3.00;;;2.80;;
8622;SDS011;4349;47.552;8.904;2024-01-06T03:43:29;3.30;;;3.00;;
8622;SDS011;4349;47.552;8.904;2024-01-06T03:45:57;3.23;;;2.97;;
8622;SDS011;4349;47.552;8.904;2024-01-06T03:48:27;3.40;;;3.10;;
8622;SDS011;4349;47.552;8.904;2024-01-06T03:50:55;3.50;;;3.20;;
8622;SDS011;4349;47.552;8.904;2024-01-06T03:53:23;3.17;;;2.97;;
8622;SDS011;4349;47.552;8.904;2024-01-06T03:55:52;2.73;;;2.57;;
8622;SDS011;4349;47.552;8.904;2024-01-06T03:58:20;2.37;;;2.27;;
8622;SDS011;4349;47.552;8.904;2024-01-06T04:00:47;2.70;;;2.50;;
8622;SDS011;4349;47.552;8.904;2024-01-06T04:03:15;2.80;;;2.60;;
8622;SDS011;4349;47.552;8.904;2024-01-06T04:05:44;2.37;;;2.27;;
8622;SDS011;4349;47.552;8.904;2024-01-06T04:08:12;2.50;;;2.40;;
8622;SDS011;4349;47.552;8.904;2024-01-06T04:10:39;2.77;;;2.67;;
8622;SDS011;4349;47.552;8.904;2024-01-06T04:13:08;2.33;;;2.23;;
8622;SDS011;4349;47.552;8.904;2024-01-06T04:15:35;2.27;;;2.17;;
8622;SDS011;4349;47.552;8.904;2024-01-06T04:18:03;2.30;;;2.20;;
8622;SDS011;4349;47.552;8.904;2024-01-06T04:20:31;2.50;;;2.30;;
8622;SDS011;4349;47.552;8.904;2024-01-06T04:23:00;2.00;;;1.90;;
8622;SDS011;4349;47.552;8.904;2024-01-06T04:25:28;2.30;;;2.20;;
8622;SDS011;4349;47.552;8.904;2024-01-06T04:27:56;2.20;;;2.10;;
8622;SDS011;4349;47.552;8.904;2024-01-06T04:30:23;2.30;;;2.20;;
8622;SDS011;4349;47.552;8.904;2024-01-06T04:32:52;1.90;;;1.90;;
8622;SDS011;4349;47.552;8.904;2024-01-06T04:35:20;2.00;;;1.90;;
8622;SDS011;4349;47.552;8.904;2024-01-06T04:37:48;2.00;;;1.90;;
8622;SDS011;4349;47.552;8.904;2024-01-06T04:40:17;2.20;;;2.10;;
8622;SDS011;4349;47.552;8.904;2024-01-06T04:42:44;1.90;;;1.80;;
8622;SDS011;4349;47.552;8.904;2024-01-06T04:45:12;2.20;;;2.00;;
8622;SDS011;4349;47.552;8.904;2024-01-06T04:47:40;2.57;;;2.47;;
8622;SDS011;4349;47.552;8.904;2024-01-06T04:50:08;2.67;;;2.50;;
8622;SDS011;4349;47.552;8.904;2024-01-06T04:52:35;2.27;;;2.07;;
8622;SDS011;4349;47.552;8.904;2024-01-06T04:55:03;2.63;;;2.17;;
8622;SDS011;4349;47.552;8.904;2024-01-06T04:57:32;3.20;;;2.30;;
8622;SDS011;4349;47.552;8.904;2024-01-06T05:00:00;2.37;;;2.17;;
8622;SDS011;4349;47.552;8.904;2024-01-06T05:02:27;2.13;;;2.03;;
8622;SDS011;4349;47.552;8.904;2024-01-06T05:04:55;2.20;;;2.10;;
8622;SDS011;4349;47.552;8.904;2024-01-06T05:07:22;2.30;;;2.10;;
8622;SDS011;4349;47.552;8.904;2024-01-06T05:09:50;2.10;;;2.00;;
8622;SDS011;4349;47.552;8.904;2024-01-06T05:12:18;1.57;;;1.57;;
8622;SDS011;4349;47.552;8.904;2024-01-06T05:14:47;2.23;;;2.13;;
8622;SDS011;4349;47.552;8.904;2024-01-06T05:17:14;2.10;;;2.00;;
8622;SDS011;4349;47.552;8.904;2024-01-06T05:19:42;2.40;;;2.30;;
8622;SDS011;4349;47.552;8.904;2024-01-06T05:22:09;2.40;;;2.30;;
8622;SDS011;4349;47.552;8.904;2024-01-06T05:24:37;2.10;;;2.00;;
8622;SDS011;4349;47.552;8.904;2024-01-06T05:27:05;2.10;;;2.00;;
8622;SDS011;4349;47.552;8.904;2024-01-06T05:29:35;2.17;;;2.10;;
8622;SDS011;4349;47.552;8.904;2024-01-06T05:32:04;2.60;;;2.40;;
8622;SDS011;4349;47.552;8.904;2024-01-06T05:34:31;2.20;;;2.00;;
8622;SDS011;4349;47.552;8.904;2024-01-06T05:36:59;2.70;;;2.10;;
8622;SDS011;4349;47.552;8.904;2024-01-06T05:39:27;5.17;;;1.93;;
8622;SDS011;4349;47.552;8.904;2024-01-06T05:41:55;2.07;;;1.97;;
8622;SDS011;4349;47.552;8.904;2024-01-06T05:44:22;2.00;;;1.90;;
8622;SDS011;4349;47.552;8.904;2024-01-06T05:46:50;3.20;;;2.10;;
8622;SDS011;4349;47.552;8.904;2024-01-06T05:49:19;2.10;;;2.00;;
8622;SDS011;4349;47.552;8.904;2024-01-06T05:51:47;2.60;;;2.13;;
8622;SDS011;4349;47.552;8.904;2024-01-06T05:54:14;2.20;;;2.10;;
8622;SDS011;4349;47.552;8.904;2024-01-06T05:56:42;2.47;;;2.27;;
8622;SDS011;4349;47.552;8.904;2024-01-06T05:59:10;2.33;;;2.10;;
8622;SDS011;4349;47.552;8.904;2024-01-06T06:01:37;2.20;;;2.00;;
8622;SDS011;4349;47.552;8.904;2024-01-06T06:04:05;2.67;;;2.20;;
8622;SDS011;4349;47.552;8.904;2024-01-06T06:06:34;2.67;;;2.20;;
8622;SDS011;4349;47.552;8.904;2024-01-06T06:09:02;2.10;;;2.00;;
8622;SDS011;4349;47.552;8.904;2024-01-06T06:11:33;2.50;;;2.30;;
8622;SDS011;4349;47.552;8.904;2024-01-06T06:14:00;2.37;;;2.20;;
8622;SDS011;4349;47.552;8.904;2024-01-06T06:16:29;2.00;;;1.90;;
8622;SDS011;4349;47.552;8.904;2024-01-06T06:18:56;2.50;;;2.27;;
8622;SDS011;4349;47.552;8.904;2024-01-06T06:21:24;2.20;;;2.10;;
8622;SDS011;4349;47.552;8.904;2024-01-06T06:23:53;2.50;;;2.20;;
8622;SDS011;4349;47.552;8.904;2024-01-06T06:26:21;2.53;;;2.30;;
8622;SDS011;4349;47.552;8.904;2024-01-06T06:28:48;2.20;;;2.07;;
8622;SDS011;4349;47.552;8.904;2024-01-06T06:31:16;2.00;;;1.90;;
8622;SDS011;4349;47.552;8.904;2024-01-06T06:33:43;2.40;;;2.20;;
8622;SDS011;4349;47.552;8.904;2024-01-06T06:36:11;4.20;;;2.33;;
8622;SDS011;4349;47.552;8.904;2024-01-06T06:38:39;2.40;;;2.30;;
8622;SDS011;4349;47.552;8.904;2024-01-06T06:41:08;2.20;;;2.10;;
8622;SDS011;4349;47.552;8.904;2024-01-06T06:43:35;2.47;;;2.33;;
8622;SDS011;4349;47.552;8.904;2024-01-06T06:46:03;2.30;;;2.20;;
8622;SDS011;4349;47.552;8.904;2024-01-06T06:48:30;2.60;;;2.40;;
8622;SDS011;4349;47.552;8.904;2024-01-06T06:50:58;2.57;;;2.47;;
8622;SDS011;4349;47.552;8.904;2024-01-06T06:53:26;2.33;;;2.23;;
8622;SDS011;4349;47.552;8.904;2024-01-06T06:55:53;2.33;;;2.23;;
8622;SDS011;4349;47.552;8.904;2024-01-06T06:58:22;2.40;;;2.30;;
8622;SDS011;4349;47.552;8.904;2024-01-06T07:00:50;2.53;;;2.40;;
8622;SDS011;4349;47.552;8.904;2024-01-06T07:03:17;2.70;;;2.60;;
8622;SDS011;4349;47.552;8.904;2024-01-06T07:05:45;2.60;;;2.50;;
8622;SDS011;4349;47.552;8.904;2024-01-06T07:08:13;2.80;;;2.70;;
8622;SDS011;4349;47.552;8.904;2024-01-06T07:10:41;2.83;;;2.63;;
8622;SDS011;4349;47.552;8.904;2024-01-06T07:13:09;2.67;;;2.43;;
8622;SDS011;4349;47.552;8.904;2024-01-06T07:15:38;2.97;;;2.83;;
8622;SDS011;4349;47.552;8.904;2024-01-06T07:18:05;2.43;;;2.20;;
8622;SDS011;4349;47.552;8.904;2024-01-06T07:20:33;2.60;;;2.40;;
8622;SDS011;4349;47.552;8.904;2024-01-06T07:23:01;2.43;;;2.27;;
8622;SDS011;4349;47.552;8.904;2024-01-06T07:25:29;2.70;;;2.50;;
8622;SDS011;4349;47.552;8.904;2024-01-06T07:27:57;2.67;;;2.57;;
8622;SDS011;4349;47.552;8.904;2024-01-06T07:30:25;2.80;;;2.30;;
8622;SDS011;4349;47.552;8.904;2024-01-06T07:32:54;2.80;;;2.63;;
8622;SDS011;4349;47.552;8.904;2024-01-06T07:35:21;3.50;;;2.17;;
8622;SDS011;4349;47.552;8.904;2024-01-06T07:37:49;2.37;;;2.30;;
8622;SDS011;4349;47.552;8.904;2024-01-06T07:40:17;2.10;;;2.00;;
8622;SDS011;4349;47.552;8.904;2024-01-06T07:42:45;2.50;;;2.27;;
8622;SDS011;4349;47.552;8.904;2024-01-06T07:45:13;2.63;;;2.43;;
8622;SDS011;4349;47.552;8.904;2024-01-06T07:47:40;2.20;;;2.10;;
8622;SDS011;4349;47.552;8.904;2024-01-06T07:50:10;2.30;;;2.20;;
8622;SDS011;4349;47.552;8.904;2024-01-06T07:52:38;2.30;;;2.20;;
8622;SDS011;4349;47.552;8.904;2024-01-06T07:55:05;2.53;;;2.43;;
8622;SDS011;4349;47.552;8.904;2024-01-06T07:57:34;2.50;;;2.40;;
8622;SDS011;4349;47.552;8.904;2024-01-06T08:00:02;2.60;;;2.50;;
8622;SDS011;4349;47.552;8.904;2024-01-06T08:02:37;2.57;;;2.37;;
8622;SDS011;4349;47.552;8.904;2024-01-06T08:05:05;2.90;;;2.70;;
8622;SDS011;4349;47.552;8.904;2024-01-06T08:07:34;2.50;;;2.40;;
8622;SDS011;4349;47.552;8.904;2024-01-06T08:10:02;2.83;;;2.67;;
8622;SDS011;4349;47.552;8.904;2024-01-06T08:12:31;2.70;;;2.60;;
8622;SDS011;4349;47.552;8.904;2024-01-06T08:14:59;3.23;;;2.90;;
8622;SDS011;4349;47.552;8.904;2024-01-06T08:17:26;3.10;;;2.90;;
8622;SDS011;4349;47.552;8.904;2024-01-06T08:19:54;2.87;;;2.60;;
8622;SDS011;4349;47.552;8.904;2024-01-06T08:22:22;3.00;;;2.90;;
8622;SDS011;4349;47.552;8.904;2024-01-06T08:24:50;3.00;;;2.80;;
8622;SDS011;4349;47.552;8.904;2024-01-06T08:27:18;2.97;;;2.87;;
8622;SDS011;4349;47.552;8.904;2024-01-06T08:29:46;2.80;;;2.60;;
8622;SDS011;4349;47.552;8.904;2024-01-06T08:32:14;2.87;;;2.77;;
8622;SDS011;4349;47.552;8.904;2024-01-06T08:34:42;3.10;;;2.90;;
8622;SDS011;4349;47.552;8.904;2024-01-06T08:37:10;2.97;;;2.77;;
8622;SDS011;4349;47.552;8.904;2024-01-06T08:39:37;3.00;;;2.90;;
8622;SDS011;4349;47.552;8.904;2024-01-06T08:42:06;3.40;;;3.20;;
8622;SDS011;4349;47.552;8.904;2024-01-06T08:44:34;2.87;;;2.77;;
8622;SDS011;4349;47.552;8.904;2024-01-06T08:47:02;3.03;;;2.87;;
8622;SDS011;4349;47.552;8.904;2024-01-06T08:49:29;3.00;;;2.90;;
8622;SDS011;4349;47.552;8.904;2024-01-06T08:51:57;2.90;;;2.80;;
8622;SDS011;4349;47.552;8.904;2024-01-06T08:54:25;2.93;;;2.80;;
8622;SDS011;4349;47.552;8.904;2024-01-06T08:56:53;4.03;;;3.03;;
8622;SDS011;4349;47.552;8.904;2024-01-06T08:59:22;2.87;;;2.77;;
8622;SDS011;4349;47.552;8.904;2024-01-06T09:01:49;3.27;;;3.10;;
8622;SDS011;4349;47.552;8.904;2024-01-06T09:04:18;2.80;;;2.70;;
8622;SDS011;4349;47.552;8.904;2024-01-06T09:06:46;2.87;;;2.77;;
8622;SDS011;4349;47.552;8.904;2024-01-06T09:09:14;2.90;;;2.80;;
8622;SDS011;4349;47.552;8.904;2024-01-06T09:11:41;3.13;;;3.03;;
8622;SDS011;4349;47.552;8.904;2024-01-06T09:14:10;3.10;;;2.90;;
8622;SDS011;4349;47.552;8.904;2024-01-06T09:16:39;2.90;;;2.70;;
8622;SDS011;4349;47.552;8.904;2024-01-06T09:19:06;2.90;;;2.80;;
8622;SDS011;4349;47.552;8.904;2024-01-06T09:21:34;3.00;;;2.80;;
8622;SDS011;4349;47.552;8.904;2024-01-06T09:24:03;3.07;;;2.97;;
8622;SDS011;4349;47.552;8.904;2024-01-06T09:26:32;3.50;;;3.20;;
8622;SDS011;4349;47.552;8.904;2024-01-06T09:29:01;3.10;;;3.00;;
8622;SDS011;4349;47.552;8.904;2024-01-06T09:31:29;3.07;;;2.87;;
8622;SDS011;4349;47.552;8.904;2024-01-06T09:33:59;3.10;;;3.00;;
8622;SDS011;4349;47.552;8.904;2024-01-06T09:36:27;3.10;;;3.00;;
8622;SDS011;4349;47.552;8.904;2024-01-06T09:38:55;3.13;;;3.03;;
8622;SDS011;4349;47.552;8.904;2024-01-06T09:41:22;3.50;;;3.30;;
8622;SDS011;4349;47.552;8.904;2024-01-06T09:43:51;3.40;;;3.20;;
8622;SDS011;4349;47.552;8.904;2024-01-06T09:46:21;3.53;;;3.40;;
8622;SDS011;4349;47.552;8.904;2024-01-06T09:48:51;3.80;;;3.50;;
8622;SDS011;4349;47.552;8.904;2024-01-06T09:51:21;3.90;;;3.60;;
8622;SDS011;4349;47.552;8.904;2024-01-06T09:53:50;3.20;;;3.10;;
8622;SDS011;4349;47.552;8.904;2024-01-06T09:56:20;3.60;;;3.40;;
8622;SDS011;4349;47.552;8.904;2024-01-06T09:58:48;4.00;;;3.80;;
8622;SDS011;4349;47.552;8.904;2024-01-06T10:01:16;3.63;;;3.43;;
8622;SDS011;4349;47.552;8.904;2024-01-06T10:03:44;3.83;;;3.53;;
8622;SDS011;4349;47.552;8.904;2024-01-06T10:06:13;3.53;;;3.33;;
8622;SDS011;4349;47.552;8.904;2024-01-06T10:08:43;3.50;;;3.30;;
8622;SDS011;4349;47.552;8.904;2024-01-06T10:11:11;3.43;;;3.23;;
8622;SDS011;4349;47.552;8.904;2024-01-06T10:13:38;3.50;;;3.30;;
8622;SDS011;4349;47.552;8.904;2024-01-06T10:16:06;4.00;;;3.60;;
8622;SDS011;4349;47.552;8.904;2024-01-06T10:18:34;3.73;;;3.43;;
8622;SDS011;4349;47.552;8.904;2024-01-06T10:21:03;3.60;;;3.33;;
8622;SDS011;4349;47.552;8.904;2024-01-06T10:23:31;3.40;;;3.30;;
8622;SDS011;4349;47.552;8.904;2024-01-06T10:26:00;3.93;;;3.60;;
8622;SDS011;4349;47.552;8.904;2024-01-06T10:28:31;3.30;;;3.10;;
8622;SDS011;4349;47.552;8.904;2024-01-06T10:30:59;3.87;;;3.57;;
8622;SDS011;4349;47.552;8.904;2024-01-06T10:33:27;3.37;;;3.17;;
8622;SDS011;4349;47.552;8.904;2024-01-06T10:35:55;3.50;;;3.40;;
8622;SDS011;4349;47.552;8.904;2024-01-06T10:38:23;3.30;;;3.20;;
8622;SDS011;4349;47.552;8.904;2024-01-06T10:40:56;3.27;;;3.00;;
8622;SDS011;4349;47.552;8.904;2024-01-06T10:43:26;3.07;;;2.90;;
8622;SDS011;4349;47.552;8.904;2024-01-06T10:45:55;3.43;;;3.23;;
8622;SDS011;4349;47.552;8.904;2024-01-06T10:48:25;2.37;;;2.27;;
8622;SDS011;4349;47.552;8.904;2024-01-06T10:50:53;2.30;;;2.20;;
8622;SDS011;4349;47.552;8.904;2024-01-06T10:53:22;2.53;;;2.30;;
8622;SDS011;4349;47.552;8.904;2024-01-06T10:55:51;2.50;;;2.30;;
8622;SDS011;4349;47.552;8.904;2024-01-06T10:58:22;2.63;;;2.53;;
8622;SDS011;4349;47.552;8.904;2024-01-06T11:00:51;2.67;;;2.47;;
8622;SDS011;4349;47.552;8.904;2024-01-06T11:03:18;2.80;;;2.60;;
8622;SDS011;4349;47.552;8.904;2024-01-06T11:05:46;3.60;;;3.40;;
8622;SDS011;4349;47.552;8.904;2024-01-06T11:08:15;3.80;;;3.50;;
8622;SDS011;4349;47.552;8.904;2024-01-06T11:10:44;3.70;;;3.33;;
8622;SDS011;4349;47.552;8.904;2024-01-06T11:13:13;3.67;;;3.47;;
8622;SDS011;4349;47.552;8.904;2024-01-06T11:15:43;3.30;;;3.20;;
8622;SDS011;4349;47.552;8.904;2024-01-06T11:23:41;3.60;;;3.40;;
8622;SDS011;4349;47.552;8.904;2024-01-06T11:26:09;3.47;;;3.17;;
8622;SDS011;4349;47.552;8.904;2024-01-06T11:28:42;3.27;;;3.17;;
8622;SDS011;4349;47.552;8.904;2024-01-06T11:31:10;3.67;;;3.47;;
8622;SDS011;4349;47.552;8.904;2024-01-06T11:33:41;4.00;;;3.70;;
8622;SDS011;4349;47.552;8.904;2024-01-06T11:36:09;4.13;;;3.80;;
8622;SDS011;4349;47.552;8.904;2024-01-06T11:38:37;7.07;;;4.73;;
8622;SDS011;4349;47.552;8.904;2024-01-06T11:41:07;3.80;;;3.43;;
8622;SDS011;4349;47.552;8.904;2024-01-06T11:43:35;3.60;;;3.37;;
8622;SDS011;4349;47.552;8.904;2024-01-06T11:46:05;3.50;;;3.30;;
8622;SDS011;4349;47.552;8.904;2024-01-06T11:48:34;3.20;;;3.00;;
8622;SDS011;4349;47.552;8.904;2024-01-06T11:51:03;3.87;;;3.57;;
8622;SDS011;4349;47.552;8.904;2024-01-06T11:53:30;4.40;;;4.00;;
8622;SDS011;4349;47.552;8.904;2024-01-06T11:55:59;4.57;;;4.17;;
8622;SDS011;4349;47.552;8.904;2024-01-06T11:58:28;4.37;;;3.97;;
8622;SDS011;4349;47.552;8.904;2024-01-06T12:00:56;4.50;;;4.30;;
8622;SDS011;4349;47.552;8.904;2024-01-06T12:03:24;4.30;;;3.90;;
8622;SDS011;4349;47.552;8.904;2024-01-06T12:05:59;3.43;;;3.20;;
8622;SDS011;4349;47.552;8.904;2024-01-06T12:08:27;4.10;;;3.80;;
8622;SDS011;4349;47.552;8.904;2024-01-06T12:11:01;3.83;;;3.53;;
8622;SDS011;4349;47.552;8.904;2024-01-06T12:13:30;4.10;;;3.40;;
8622;SDS011;4349;47.552;8.904;2024-01-06T12:15:58;3.03;;;2.93;;
8622;SDS011;4349;47.552;8.904;2024-01-06T12:18:27;3.20;;;3.00;;
8622;SDS011;4349;47.552;8.904;2024-01-06T12:20:54;3.83;;;3.40;;
8622;SDS011;4349;47.552;8.904;2024-01-06T12:23:25;3.70;;;3.40;;
8622;SDS011;4349;47.552;8.904;2024-01-06T12:25:54;4.57;;;3.57;;
8622;SDS011;4349;47.552;8.904;2024-01-06T12:28:21;4.33;;;3.90;;
8622;SDS011;4349;47.552;8.904;2024-01-06T12:30:51;4.13;;;3.67;;
8622;SDS011;4349;47.552;8.904;2024-01-06T12:33:19;4.60;;;3.57;;
8622;SDS011;4349;47.552;8.904;2024-01-06T12:35:47;4.20;;;3.90;;
8622;SDS011;4349;47.552;8.904;2024-01-06T12:38:15;4.63;;;4.00;;
8622;SDS011;4349;47.552;8.904;2024-01-06T12:40:43;4.50;;;4.17;;
8622;SDS011;4349;47.552;8.904;2024-01-06T12:43:13;3.97;;;3.77;;
8622;SDS011;4349;47.552;8.904;2024-01-06T12:45:41;3.90;;;3.60;;
8622;SDS011;4349;47.552;8.904;2024-01-06T12:48:10;3.97;;;3.50;;
8622;SDS011;4349;47.552;8.904;2024-01-06T12:50:38;4.00;;;3.70;;
8622;SDS011;4349;47.552;8.904;2024-01-06T12:53:05;6.03;;;3.50;;
8622;SDS011;4349;47.552;8.904;2024-01-06T12:55:33;3.90;;;3.60;;
8622;SDS011;4349;47.552;8.904;2024-01-06T12:58:00;3.93;;;3.63;;
8622;SDS011;4349;47.552;8.904;2024-01-06T13:00:30;4.80;;;3.90;;
8622;SDS011;4349;47.552;8.904;2024-01-06T13:03:02;3.97;;;3.67;;
8622;SDS011;4349;47.552;8.904;2024-01-06T13:05:32;3.57;;;3.37;;
8622;SDS011;4349;47.552;8.904;2024-01-06T13:07:59;3.57;;;3.37;;
8622;SDS011;4349;47.552;8.904;2024-01-06T13:10:28;3.70;;;3.50;;
8622;SDS011;4349;47.552;8.904;2024-01-06T13:12:55;3.80;;;3.60;;
8622;SDS011;4349;47.552;8.904;2024-01-06T13:15:23;3.77;;;3.47;;
8622;SDS011;4349;47.552;8.904;2024-01-06T13:17:51;3.73;;;3.47;;
8622;SDS011;4349;47.552;8.904;2024-01-06T13:20:19;3.33;;;3.13;;
8622;SDS011;4349;47.552;8.904;2024-01-06T13:22:48;4.00;;;3.70;;
8622;SDS011;4349;47.552;8.904;2024-01-06T13:25:17;3.80;;;3.50;;
8622;SDS011;4349;47.552;8.904;2024-01-06T13:27:46;4.07;;;3.77;;
8622;SDS011;4349;47.552;8.904;2024-01-06T13:30:15;5.67;;;3.47;;
8622;SDS011;4349;47.552;8.904;2024-01-06T13:32:44;3.60;;;3.30;;
8622;SDS011;4349;47.552;8.904;2024-01-06T13:35:12;3.70;;;3.40;;
8622;SDS011;4349;47.552;8.904;2024-01-06T13:37:40;3.70;;;3.40;;
8622;SDS011;4349;47.552;8.904;2024-01-06T13:40:10;3.53;;;3.20;;
8622;SDS011;4349;47.552;8.904;2024-01-06T13:42:38;3.17;;;2.87;;
8622;SDS011;4349;47.552;8.904;2024-01-06T13:45:06;3.20;;;2.90;;
8622;SDS011;4349;47.552;8.904;2024-01-06T13:47:34;4.27;;;3.23;;
8622;SDS011;4349;47.552;8.904;2024-01-06T13:50:01;4.43;;;2.70;;
8622;SDS011;4349;47.552;8.904;2024-01-06T13:52:29;3.70;;;3.33;;
8622;SDS011;4349;47.552;8.904;2024-01-06T13:54:57;4.10;;;3.80;;
8622;SDS011;4349;47.552;8.904;2024-01-06T13:57:26;7.07;;;3.70;;
8622;SDS011;4349;47.552;8.904;2024-01-06T13:59:53;3.93;;;3.63;;
8622;SDS011;4349;47.552;8.904;2024-01-06T14:02:21;3.53;;;3.07;;
8622;SDS011;4349;47.552;8.904;2024-01-06T14:04:49;3.77;;;3.40;;
8622;SDS011;4349;47.552;8.904;2024-01-06T14:07:17;3.90;;;3.60;;
8622;SDS011;4349;47.552;8.904;2024-01-06T14:09:46;3.27;;;3.03;;
8622;SDS011;4349;47.552;8.904;2024-01-06T14:12:13;3.90;;;3.60;;
8622;SDS011;4349;47.552;8.904;2024-01-06T14:14:42;4.43;;;2.97;;
8622;SDS011;4349;47.552;8.904;2024-01-06T14:17:10;5.73;;;4.23;;
8622;SDS011;4349;47.552;8.904;2024-01-06T14:19:37;4.87;;;3.40;;
8622;SDS011;4349;47.552;8.904;2024-01-06T14:22:05;3.40;;;3.17;;
8622;SDS011;4349;47.552;8.904;2024-01-06T14:24:33;3.70;;;3.30;;
8622;SDS011;4349;47.552;8.904;2024-01-06T14:27:02;3.43;;;3.13;;
8622;SDS011;4349;47.552;8.904;2024-01-06T14:29:30;3.30;;;3.00;;
8622;SDS011;4349;47.552;8.904;2024-01-06T14:31:59;3.90;;;3.20;;
8622;SDS011;4349;47.552;8.904;2024-01-06T14:34:27;4.93;;;3.20;;
8622;SDS011;4349;47.552;8.904;2024-01-06T14:36:54;3.50;;;3.20;;
8622;SDS011;4349;47.552;8.904;2024-01-06T14:39:22;3.70;;;3.43;;
8622;SDS011;4349;47.552;8.904;2024-01-06T14:41:50;3.50;;;3.20;;
8622;SDS011;4349;47.552;8.904;2024-01-06T14:44:18;4.23;;;3.53;;
8622;SDS011;4349;47.552;8.904;2024-01-06T14:46:46;4.60;;;3.50;;
8622;SDS011;4349;47.552;8.904;2024-01-06T14:49:15;3.37;;;3.07;;
8622;SDS011;4349;47.552;8.904;2024-01-06T14:51:43;3.30;;;3.10;;
8622;SDS011;4349;47.552;8.904;2024-01-06T14:54:11;4.47;;;4.03;;
8622;SDS011;4349;47.552;8.904;2024-01-06T14:56:39;4.40;;;4.00;;
8622;SDS011;4349;47.552;8.904;2024-01-06T14:59:07;4.47;;;4.07;;
8622;SDS011;4349;47.552;8.904;2024-01-06T15:01:35;3.60;;;3.40;;
8622;SDS011;4349;47.552;8.904;2024-01-06T15:04:02;3.40;;;3.10;;
8622;SDS011;4349;47.552;8.904;2024-01-06T15:06:31;4.20;;;3.80;;
8622;SDS011;4349;47.552;8.904;2024-01-06T15:09:01;3.83;;;3.53;;
8622;SDS011;4349;47.552;8.904;2024-01-06T15:11:28;4.27;;;3.77;;
8622;SDS011;4349;47.552;8.904;2024-01-06T15:13:56;4.60;;;4.27;;
8622;SDS011;4349;47.552;8.904;2024-01-06T15:16:23;4.50;;;3.90;;
8622;SDS011;4349;47.552;8.904;2024-01-06T15:18:51;4.47;;;3.90;;
8622;SDS011;4349;47.552;8.904;2024-01-06T15:21:18;4.17;;;3.80;;
8622;SDS011;4349;47.552;8.904;2024-01-06T15:23:51;3.90;;;3.60;;
8622;SDS011;4349;47.552;8.904;2024-01-06T15:26:23;3.93;;;3.60;;